Time;durP1;ratioP1;P1;durP2;ratioP2;P2;SDS_P1;SDS_P2;PMS_P1;PMS_P2;Temp;Humidity;BMP_temperature;BMP_pressure;BME280_temperature;BME280_humidity;BME280_pressure;Samples;Min_cycle;Max_cycle;Signal;HPM_P1;HPM_P2
2022/03/22 00:02:01;;;;;;;5.97;2.00;;;3.60;90.40;;;;;;4974976;28;20030;-77
2022/03/22 00:04:27;;;;;;;5.88;2.03;;;3.50;90.70;;;;;;4974968;28;20657;-77
2022/03/22 00:06:52;;;;;;;4.65;1.90;;;3.50;91.00;;;;;;4974459;28;20070;-76
2022/03/22 00:09:18;;;;;;;11.35;2.38;;;3.60;91.00;;;;;;4974505;28;20027;-77
2022/03/22 00:11:44;;;;;;;6.35;2.20;;;3.60;91.00;;;;;;4974482;28;20085;-76
2022/03/22 00:14:10;;;;;;;5.03;2.15;;;3.50;91.20;;;;;;4974296;28;20394;-77
2022/03/22 00:16:36;;;;;;;4.18;2.35;;;3.50;91.40;;;;;;4974651;28;20034;-77
2022/03/22 00:19:02;;;;;;;5.57;1.90;;;3.50;91.50;;;;;;4973515;28;20085;-77
2022/03/22 00:21:28;;;;;;;5.95;1.90;;;3.40;91.70;;;;;;4974202;28;20047;-77
2022/03/22 00:23:54;;;;;;;6.35;2.55;;;3.50;91.90;;;;;;4974560;28;20041;-77
2022/03/22 00:26:20;;;;;;;9.90;2.92;;;3.40;92.10;;;;;;4974295;28;20023;-77
2022/03/22 00:28:46;;;;;;;8.45;2.40;;;3.50;92.10;;;;;;4974525;28;20485;-77
2022/03/22 00:31:12;;;;;;;5.43;1.90;;;3.40;92.00;;;;;;4973985;28;20707;-76
2022/03/22 00:33:38;;;;;;;6.40;1.90;;;3.40;92.40;;;;;;4974083;28;20035;-76
2022/03/22 00:36:05;;;;;;;5.18;2.17;;;3.40;92.40;;;;;;4974002;28;20085;-76
2022/03/22 00:38:31;;;;;;;8.38;2.20;;;3.40;92.20;;;;;;4973757;28;20515;-76
2022/03/22 00:40:58;;;;;;;4.55;1.92;;;3.50;92.20;;;;;;4974384;28;20038;-76
2022/03/22 00:43:24;;;;;;;6.20;2.10;;;3.50;92.20;;;;;;4973852;28;20146;-76
2022/03/22 00:45:50;;;;;;;5.43;2.00;;;3.40;92.40;;;;;;4974019;28;20034;-76
2022/03/22 00:48:16;;;;;;;4.45;1.98;;;3.40;92.50;;;;;;4973772;28;20026;-76
2022/03/22 00:50:44;;;;;;;5.53;1.98;;;3.40;92.60;;;;;;4973838;28;20039;-77
2022/03/22 00:53:15;;;;;;;4.50;1.92;;;3.40;92.90;;;;;;4973954;28;20078;-79
2022/03/22 00:55:41;;;;;;;8.45;2.22;;;3.40;93.20;;;;;;4973804;28;20023;-77
2022/03/22 00:58:07;;;;;;;8.48;2.08;;;3.30;93.50;;;;;;4973740;28;20121;-77
2022/03/22 01:00:34;;;;;;;8.95;1.98;;;3.30;93.80;;;;;;4973766;28;20038;-77
2022/03/22 01:03:02;;;;;;;5.03;2.10;;;3.30;93.80;;;;;;4973926;28;20395;-77
2022/03/22 01:05:28;;;;;;;9.40;3.28;;;3.30;94.20;;;;;;4973511;28;20034;-77
2022/03/22 01:08:01;;;;;;;9.88;2.17;;;3.30;94.10;;;;;;4973883;28;20027;-77
2022/03/22 01:10:29;;;;;;;7.55;2.20;;;3.20;94.30;;;;;;4973531;28;20037;-77
2022/03/22 01:12:55;;;;;;;8.35;2.38;;;3.20;94.10;;;;;;4973510;28;20041;-76
2022/03/22 01:15:32;;;;;;;5.45;2.03;;;3.30;94.10;;;;;;4973565;28;20030;-76
2022/03/22 01:18:01;;;;;;;8.73;2.08;;;3.30;94.50;;;;;;4973295;28;20041;-75
2022/03/22 01:20:27;;;;;;;6.70;2.17;;;3.20;94.80;;;;;;4973220;28;20042;-75
2022/03/22 01:22:54;;;;;;;5.47;1.95;;;3.10;95.00;;;;;;4973567;28;20018;-75
2022/03/22 01:25:27;;;;;;;4.43;1.88;;;3.10;95.00;;;;;;4973114;28;20035;-75
2022/03/22 01:27:54;;;;;;;7.70;2.35;;;3.00;95.40;;;;;;4973319;28;20023;-76
2022/03/22 01:30:22;;;;;;;6.28;2.15;;;3.00;95.70;;;;;;4972954;28;20031;-76
2022/03/22 01:32:52;;;;;;;3.40;2.05;;;3.00;95.70;;;;;;4973527;28;20434;-74
2022/03/22 01:35:19;;;;;;;4.72;2.10;;;3.00;96.00;;;;;;4973132;28;20037;-75
2022/03/22 01:37:49;;;;;;;12.38;2.10;;;2.90;96.30;;;;;;4972693;28;20074;-75
2022/03/22 01:40:16;;;;;;;7.40;1.70;;;2.90;96.50;;;;;;4973058;28;20031;-75
2022/03/22 01:42:42;;;;;;;3.80;2.10;;;2.80;96.70;;;;;;4973276;28;20034;-75
2022/03/22 01:45:09;;;;;;;7.90;2.08;;;2.90;96.70;;;;;;4973066;28;20502;-75
2022/03/22 01:47:37;;;;;;;7.38;2.33;;;2.90;96.60;;;;;;4972951;28;20499;-75
2022/03/22 01:50:05;;;;;;;6.45;2.22;;;2.90;96.70;;;;;;4973026;28;20022;-76
2022/03/22 01:52:39;;;;;;;7.90;2.25;;;2.80;96.90;;;;;;4972704;28;20093;-76
2022/03/22 01:55:06;;;;;;;8.27;2.63;;;2.80;97.10;;;;;;4973305;28;20030;-76
2022/03/22 01:57:33;;;;;;;7.97;2.10;;;2.80;97.20;;;;;;4972974;28;20038;-76
2022/03/22 01:59:59;;;;;;;10.70;2.33;;;2.80;97.20;;;;;;4973202;28;20394;-76
2022/03/22 02:08:01;;;;;;;29.83;3.38;;;2.90;96.80;;;;;;4953948;29;20042;-76
2022/03/22 02:10:27;;;;;;;34.70;3.20;;;2.90;96.70;;;;;;4953555;28;20380;-76
2022/03/22 02:12:53;;;;;;;26.45;2.90;;;2.90;96.50;;;;;;4953501;28;20031;-76
2022/03/22 02:15:19;;;;;;;11.02;2.22;;;2.90;96.50;;;;;;4953692;28;20030;-76
2022/03/22 02:17:45;;;;;;;8.00;2.30;;;2.90;96.40;;;;;;4953389;29;20475;-76
2022/03/22 02:20:15;;;;;;;5.93;2.10;;;2.90;96.30;;;;;;4953408;28;20087;-76
2022/03/22 02:22:50;;;;;;;7.57;2.53;;;2.90;96.50;;;;;;4953633;28;20398;-76
2022/03/22 02:56:48;;;;;;;9.50;2.20;;;2.70;97.00;;;;;;4957923;29;20138;-76
2022/03/22 02:59:14;;;;;;;7.88;2.30;;;2.70;97.00;;;;;;4956714;28;20094;-77
2022/03/22 03:01:40;;;;;;;10.65;3.70;;;2.70;97.20;;;;;;4956908;28;20023;-78
2022/03/22 03:37:45;;;;;;;6.72;2.15;;;2.40;98.60;;;;;;5870661;23;20063;-74
2022/03/22 03:40:13;;;;;;;4.75;2.05;;;2.40;98.40;;;;;;4973160;28;20482;-75
2022/03/22 03:42:42;;;;;;;7.32;2.25;;;2.40;98.50;;;;;;4975416;28;20433;-76
2022/03/22 03:47:58;;;;;;;5.40;2.45;;;2.40;98.60;;;;;;4975397;28;20037;-75
2022/03/22 03:50:24;;;;;;;5.95;2.30;;;2.40;98.70;;;;;;4975351;28;20026;-76
2022/03/22 03:52:50;;;;;;;12.63;2.50;;;2.30;98.90;;;;;;4974490;28;20030;-74
2022/03/22 03:55:16;;;;;;;4.15;2.17;;;2.30;98.70;;;;;;4974513;28;20490;-74
2022/03/22 03:57:44;;;;;;;17.48;2.85;;;2.30;98.60;;;;;;4975092;28;20026;-75
2022/03/22 04:00:10;;;;;;;7.05;2.45;;;2.30;99.00;;;;;;4974877;28;20046;-75
2022/03/22 04:02:36;;;;;;;8.85;3.50;;;2.30;99.00;;;;;;4974747;28;20073;-75
2022/03/22 04:05:02;;;;;;;8.90;2.53;;;2.30;99.30;;;;;;4974374;28;20109;-74
2022/03/22 04:07:27;;;;;;;10.80;2.67;;;2.20;99.30;;;;;;4974854;28;20030;-73
2022/03/22 04:09:56;;;;;;;6.05;2.10;;;2.30;99.20;;;;;;4974056;28;20494;-72
2022/03/22 04:12:22;;;;;;;3.90;1.33;;;2.30;99.80;;;;;;4974587;28;20488;-71
2022/03/22 04:14:53;;;;;;;12.88;2.50;;;2.60;99.90;;;;;;4974383;28;20063;-73
2022/03/22 04:17:19;;;;;;;12.80;2.55;;;4.20;99.90;;;;;;4974518;28;20500;-76
2022/03/22 04:19:45;;;;;;;4.88;2.00;;;4.60;99.90;;;;;;4974386;28;20043;-79
2022/03/22 04:22:11;;;;;;;9.93;2.47;;;4.20;99.90;;;;;;4974562;28;20027;-80
2022/03/22 04:24:37;;;;;;;8.07;2.08;;;3.70;99.90;;;;;;4974188;28;20027;-75
2022/03/22 04:32:42;;;;;;;5.97;2.42;;;3.00;99.90;;;;;;4974536;28;20045;-74
2022/03/22 04:35:23;;;;;;;8.75;2.85;;;2.80;99.90;;;;;;4973974;28;20031;-74
2022/03/22 04:37:52;;;;;;;8.13;2.90;;;2.60;99.90;;;;;;4973773;28;20572;-74
2022/03/22 04:40:19;;;;;;;8.50;2.20;;;2.40;99.90;;;;;;4974217;28;20097;-74
2022/03/22 04:42:47;;;;;;;4.57;2.10;;;2.30;99.90;;;;;;4973969;28;20449;-80
2022/03/22 04:45:13;;;;;;;7.07;2.17;;;2.20;99.90;;;;;;4973962;28;20646;-75
2022/03/22 04:47:39;;;;;;;7.88;2.30;;;2.20;99.90;;;;;;4973936;28;20084;-84
2022/03/22 04:50:06;;;;;;;6.72;2.25;;;2.30;99.90;;;;;;4973853;28;20113;-78
2022/03/22 04:58:02;;;;;;;8.77;2.30;;;2.50;99.90;;;;;;4973937;28;20038;-80
2022/03/22 05:00:28;;;;;;;10.18;2.30;;;2.50;99.90;;;;;;4973988;28;20455;-79
2022/03/22 05:02:54;;;;;;;8.40;2.28;;;2.50;99.90;;;;;;4974044;28;20360;-77
2022/03/22 05:08:04;;;;;;;9.68;3.45;;;2.40;99.90;;;;;;4973368;28;20061;-76
2022/03/22 05:10:35;;;;;;;10.63;4.32;;;2.30;99.90;;;;;;4973526;28;20034;-70
2022/03/22 05:13:01;;;;;;;13.23;4.50;;;2.30;99.90;;;;;;4973034;28;20085;-71
2022/03/22 05:15:27;;;;;;;4.57;2.40;;;2.30;99.90;;;;;;4973322;28;20089;-71
2022/03/22 05:17:53;;;;;;;9.10;2.55;;;2.20;99.90;;;;;;4972667;28;20027;-71
2022/03/22 05:20:19;;;;;;;10.35;2.83;;;2.10;99.90;;;;;;4972708;28;20466;-71
2022/03/22 05:22:45;;;;;;;10.15;2.22;;;2.10;99.90;;;;;;4972621;28;20094;-70
2022/03/22 05:25:11;;;;;;;6.65;2.10;;;2.10;99.90;;;;;;4973142;28;20034;-70
2022/03/22 05:27:37;;;;;;;10.60;2.65;;;2.00;99.90;;;;;;4972973;28;20540;-80
2022/03/22 05:30:05;;;;;;;4.20;2.40;;;2.20;99.90;;;;;;4973041;28;20162;-80
2022/03/22 05:32:30;;;;;;;9.52;2.28;;;2.30;99.90;;;;;;4973205;28;20063;-80
2022/03/22 05:34:56;;;;;;;9.38;2.70;;;2.20;99.90;;;;;;4971631;28;20398;-76
2022/03/22 05:37:22;;;;;;;13.85;6.05;;;2.20;99.90;;;;;;4972905;28;20086;-73
2022/03/22 05:39:48;;;;;;;17.85;3.35;;;2.10;99.90;;;;;;4972656;28;20478;-71
2022/03/22 05:42:14;;;;;;;11.55;3.10;;;2.20;99.90;;;;;;4971057;28;20026;-71
2022/03/22 05:44:40;;;;;;;8.70;2.65;;;2.30;99.90;;;;;;4972802;28;20110;-72
2022/03/22 05:47:07;;;;;;;59.25;23.20;;;2.40;99.90;;;;;;4972398;28;20102;-71
2022/03/22 05:49:33;;;;;;;16.63;8.27;;;2.70;99.90;;;;;;4972766;28;20073;-71
2022/03/22 05:51:59;;;;;;;11.95;2.95;;;3.00;99.90;;;;;;4973024;28;20462;-71
2022/03/22 05:54:25;;;;;;;11.45;2.95;;;3.30;99.90;;;;;;4972661;28;20058;-72
2022/03/22 05:56:51;;;;;;;31.83;5.05;;;3.60;99.90;;;;;;4972694;28;20019;-71
2022/03/22 05:59:17;;;;;;;74.53;8.73;;;3.90;99.90;;;;;;4972558;28;20063;-81
2022/03/22 06:01:46;;;;;;;41.30;6.45;;;4.10;99.30;;;;;;4972970;28;20398;-81
2022/03/22 06:04:12;;;;;;;6.00;3.05;;;4.40;97.80;;;;;;4972996;28;20031;-80
2022/03/22 06:06:38;;;;;;;11.52;2.30;;;4.60;98.40;;;;;;4973168;28;20022;-74
2022/03/22 06:09:04;;;;;;;14.48;2.35;;;4.70;95.50;;;;;;4953379;28;20179;-74
2022/03/22 06:11:34;;;;;;;5.93;2.45;;;4.90;94.20;;;;;;4962500;28;20022;-74
2022/03/22 06:14:00;;;;;;;8.93;2.57;;;5.00;93.20;;;;;;4972490;28;20134;-74
2022/03/22 06:16:26;;;;;;;7.10;2.42;;;5.20;92.40;;;;;;4973232;28;20132;-84
2022/03/22 06:18:52;;;;;;;7.00;2.17;;;5.40;93.60;;;;;;4976181;28;20202;-80
2022/03/22 06:21:17;;;;;;;9.27;3.50;;;5.50;91.60;;;;;;4976513;28;20022;-83
2022/03/22 06:23:43;;;;;;;7.53;2.70;;;5.70;90.80;;;;;;4975984;28;20104;-80
2022/03/22 06:26:09;;;;;;;13.23;2.13;;;5.70;90.00;;;;;;4976368;28;20053;-74
2022/03/22 06:28:35;;;;;;;7.35;2.60;;;5.90;89.30;;;;;;4976493;28;20033;-73
2022/03/22 06:31:00;;;;;;;13.02;2.65;;;6.00;88.00;;;;;;4976406;28;20505;-74
2022/03/22 06:33:27;;;;;;;5.60;2.10;;;6.00;86.80;;;;;;4976619;28;20034;-75
2022/03/22 06:35:53;;;;;;;9.80;2.65;;;6.10;85.80;;;;;;4976464;28;20471;-73
2022/03/22 06:38:19;;;;;;;11.00;2.28;;;6.20;85.10;;;;;;4976032;28;20051;-77
2022/03/22 06:40:45;;;;;;;6.32;2.05;;;6.20;85.00;;;;;;4975894;28;20085;-75
2022/03/22 06:43:14;;;;;;;21.35;3.25;;;6.50;93.80;;;;;;4976287;28;20031;-72
2022/03/22 06:45:40;;;;;;;25.73;2.95;;;6.90;90.90;;;;;;4976140;28;20031;-74
2022/03/22 06:48:06;;;;;;;9.95;2.75;;;6.90;89.10;;;;;;4976296;28;20022;-74
2022/03/22 06:50:33;;;;;;;18.85;2.75;;;6.80;82.70;;;;;;4976350;28;20030;-74
2022/03/22 06:52:59;;;;;;;22.02;3.15;;;6.50;82.00;;;;;;4976459;28;20023;-74
2022/03/22 06:55:25;;;;;;;34.47;3.15;;;6.40;82.20;;;;;;4976002;28;20410;-74
2022/03/22 06:57:51;;;;;;;47.88;3.35;;;6.40;82.50;;;;;;4975872;28;20030;-74
2022/03/22 07:00:19;;;;;;;11.85;2.80;;;6.70;88.90;;;;;;4975922;28;20050;-75
2022/03/22 07:02:47;;;;;;;37.95;3.40;;;7.00;87.50;;;;;;4975912;28;20105;-74
2022/03/22 07:05:13;;;;;;;22.55;2.95;;;7.00;82.40;;;;;;4975590;28;20118;-74
2022/03/22 07:07:40;;;;;;;14.35;2.40;;;7.00;81.40;;;;;;4975698;28;20479;-75
2022/03/22 07:10:09;;;;;;;17.92;2.65;;;7.00;80.50;;;;;;4975702;28;20057;-75
2022/03/22 07:12:51;;;;;;;20.00;2.80;;;7.10;80.00;;;;;;4975627;28;20027;-75
2022/03/22 07:15:37;;;;;;;8.27;2.60;;;7.10;79.90;;;;;;4975067;28;20659;-76
2022/03/22 07:18:08;;;;;;;13.88;2.60;;;7.10;79.50;;;;;;4975216;28;20055;-72
2022/03/22 07:20:34;;;;;;;13.60;3.45;;;7.20;78.40;;;;;;4975512;28;20037;-70
2022/03/22 07:23:01;;;;;;;7.85;2.35;;;7.10;78.50;;;;;;4975385;28;20470;-67
2022/03/22 07:25:27;;;;;;;29.95;3.20;;;7.10;78.40;;;;;;4975458;28;20027;-67
2022/03/22 07:27:54;;;;;;;9.70;2.78;;;7.10;78.20;;;;;;4975175;28;20069;-67
2022/03/22 07:30:20;;;;;;;16.92;2.30;;;7.10;78.10;;;;;;4976008;28;20023;-67
2022/03/22 07:32:46;;;;;;;11.77;2.53;;;7.00;78.10;;;;;;4975368;28;20022;-67
2022/03/22 07:35:13;;;;;;;15.15;2.67;;;6.90;77.90;;;;;;4975018;28;20034;-75
2022/03/22 07:37:39;;;;;;;15.65;2.85;;;6.90;78.20;;;;;;4975076;28;20034;-74
2022/03/22 07:40:08;;;;;;;15.40;2.65;;;6.90;78.00;;;;;;4975061;28;20038;-74
2022/03/22 07:42:35;;;;;;;11.15;2.55;;;6.90;78.00;;;;;;4975168;28;20029;-73
2022/03/22 07:45:07;;;;;;;7.88;2.03;;;6.80;77.50;;;;;;4975275;28;20079;-74
2022/03/22 07:47:33;;;;;;;10.38;2.53;;;7.70;97.70;;;;;;4974510;28;20027;-75
2022/03/22 07:53:00;;;;;;;3.05;1.88;;;6.90;80.80;;;;;;4975014;28;20085;-75
2022/03/22 07:55:28;;;;;;;10.82;2.13;;;6.50;80.70;;;;;;4975070;28;20081;-74
2022/03/22 07:57:55;;;;;;;7.72;2.25;;;6.10;81.50;;;;;;4974730;28;20045;-74
2022/03/22 08:00:20;;;;;;;12.43;2.22;;;5.90;82.80;;;;;;4974885;28;20035;-74
2022/03/22 08:03:03;;;;;;;7.63;2.25;;;5.80;83.70;;;;;;4974709;28;20085;-74
2022/03/22 08:05:30;;;;;;;10.98;2.60;;;5.70;84.10;;;;;;4973580;28;20426;-74
2022/03/22 08:07:56;;;;;;;9.85;2.22;;;5.70;84.60;;;;;;4974495;28;20031;-74
2022/03/22 08:10:22;;;;;;;8.70;3.65;;;5.80;84.90;;;;;;4974660;28;20050;-74
2022/03/22 08:12:49;;;;;;;13.20;2.78;;;5.80;84.80;;;;;;4974732;28;20046;-74
2022/03/22 08:15:15;;;;;;;14.15;2.40;;;5.80;84.50;;;;;;4974276;28;20027;-74
2022/03/22 08:17:42;;;;;;;7.65;2.47;;;5.80;84.20;;;;;;4974609;28;20026;-74
2022/03/22 08:20:09;;;;;;;10.02;2.47;;;5.80;84.20;;;;;;4974420;28;20050;-74
2022/03/22 08:22:55;;;;;;;46.80;3.47;;;5.80;84.80;;;;;;4974306;28;20113;-74
2022/03/22 08:25:27;;;;;;;28.15;2.92;;;5.90;85.30;;;;;;4974135;28;20049;-74
2022/03/22 08:27:54;;;;;;;7.80;2.78;;;6.00;85.40;;;;;;4973145;28;20023;-74
2022/03/22 08:30:21;;;;;;;9.27;2.60;;;6.00;84.70;;;;;;4974008;28;20074;-74
2022/03/22 08:32:49;;;;;;;6.63;2.35;;;6.00;85.10;;;;;;4973100;28;20038;-74
2022/03/22 08:35:16;;;;;;;5.20;2.20;;;6.00;85.50;;;;;;4973883;28;20031;-74
2022/03/22 08:37:41;;;;;;;15.30;2.35;;;6.10;85.00;;;;;;4974041;28;20125;-74
2022/03/22 08:40:08;;;;;;;8.90;2.10;;;6.10;84.30;;;;;;4973140;28;20590;-74
2022/03/22 08:42:33;;;;;;;10.57;2.40;;;6.10;84.00;;;;;;4974283;28;20023;-74
2022/03/22 08:44:59;;;;;;;33.25;3.45;;;6.10;83.80;;;;;;4974124;28;20050;-74
2022/03/22 08:47:27;;;;;;;14.27;2.80;;;6.20;89.50;;;;;;4973492;28;20518;-72
2022/03/22 08:49:52;;;;;;;21.80;2.65;;;6.40;87.70;;;;;;4973946;28;20089;-72
2022/03/22 08:52:18;;;;;;;10.05;2.47;;;6.50;85.40;;;;;;4973808;28;20071;-72
2022/03/22 08:54:45;;;;;;;37.00;3.38;;;6.50;84.30;;;;;;4974102;28;20374;-72
2022/03/22 08:57:11;;;;;;;19.80;2.38;;;6.50;83.70;;;;;;4973789;28;20030;-72
2022/03/22 08:59:36;;;;;;;15.18;2.90;;;6.60;83.90;;;;;;4973752;28;20050;-72
2022/03/22 09:02:02;;;;;;;8.75;2.30;;;6.70;83.20;;;;;;4973551;28;20364;-72
2022/03/22 09:07:14;;;;;;;18.20;2.38;;;6.80;82.50;;;;;;4973627;28;20037;-72
2022/03/22 09:09:39;;;;;;;8.02;2.63;;;6.90;82.00;;;;;;4973232;28;20490;-71
2022/03/22 09:12:05;;;;;;;9.65;2.05;;;6.90;82.40;;;;;;4973531;28;20022;-71
2022/03/22 09:14:31;;;;;;;40.80;3.58;;;7.00;81.90;;;;;;4973336;28;20504;-71
2022/03/22 09:16:57;;;;;;;18.13;2.80;;;7.00;81.00;;;;;;4973814;28;20034;-69
2022/03/22 09:19:23;;;;;;;16.20;2.38;;;7.10;80.30;;;;;;4973307;28;20096;-69
2022/03/22 09:21:48;;;;;;;13.98;2.42;;;7.20;80.00;;;;;;4973784;28;20078;-69
2022/03/22 09:24:14;;;;;;;5.45;1.90;;;7.20;80.50;;;;;;4973231;28;20053;-69
2022/03/22 09:26:40;;;;;;;13.90;2.30;;;7.30;80.20;;;;;;4973725;28;20027;-68
2022/03/22 09:29:05;;;;;;;45.38;3.95;;;7.30;80.20;;;;;;4973199;28;20023;-69
2022/03/22 09:31:31;;;;;;;12.65;2.58;;;7.40;79.90;;;;;;4973217;28;20038;-68
2022/03/22 09:33:57;;;;;;;23.95;2.58;;;7.40;78.90;;;;;;4973624;28;20127;-70
2022/03/22 09:36:23;;;;;;;13.73;3.00;;;7.40;78.20;;;;;;4972972;28;20499;-71
2022/03/22 09:38:48;;;;;;;14.40;2.30;;;7.50;77.60;;;;;;4972983;28;20053;-71
2022/03/22 09:41:15;;;;;;;8.50;2.30;;;7.60;76.20;;;;;;4989210;28;20046;-72
2022/03/22 09:43:49;;;;;;;13.60;2.53;;;7.60;77.20;;;;;;4992551;28;20030;-72
2022/03/22 09:46:18;;;;;;;5.25;2.15;;;7.80;75.10;;;;;;4992409;28;20038;-72
2022/03/22 09:48:45;;;;;;;21.45;2.13;;;7.80;75.30;;;;;;4992834;28;20026;-72
2022/03/22 09:53:55;;;;;;;23.70;2.55;;;7.80;73.80;;;;;;4996719;28;20133;-72
2022/03/22 09:56:21;;;;;;;5.47;1.73;;;7.90;73.10;;;;;;4996410;28;20105;-72
2022/03/22 09:58:48;;;;;;;19.23;2.22;;;8.20;78.10;;;;;;4996587;28;20561;-73
2022/03/22 10:01:14;;;;;;;40.30;3.38;;;8.20;73.60;;;;;;4996798;28;20389;-72
2022/03/22 10:03:42;;;;;;;9.02;1.98;;;8.30;71.80;;;;;;4996272;28;20462;-73
2022/03/22 10:06:09;;;;;;;5.70;1.75;;;8.30;74.60;;;;;;4996376;28;20030;-73
2022/03/22 10:08:37;;;;;;;6.53;2.08;;;8.50;72.50;;;;;;4996137;28;20018;-73
2022/03/22 10:11:03;;;;;;;5.00;1.85;;;8.50;72.40;;;;;;4996266;28;20149;-73
2022/03/22 10:13:29;;;;;;;15.20;2.22;;;8.50;73.70;;;;;;4996001;28;20026;-73
2022/03/22 10:16:04;;;;;;;12.15;1.90;;;8.60;72.20;;;;;;4995792;28;20091;-73
2022/03/22 10:18:34;;;;;;;85.50;5.30;;;8.60;73.30;;;;;;4995908;28;20387;-73
2022/03/22 10:21:02;;;;;;;7.40;1.77;;;8.70;71.70;;;;;;4995873;28;20480;-75
2022/03/22 10:23:30;;;;;;;16.23;3.25;;;8.70;69.30;;;;;;4995963;28;20030;-74
2022/03/22 10:26:07;;;;;;;8.30;1.85;;;8.80;69.30;;;;;;4995659;28;20190;-74
2022/03/22 10:28:34;;;;;;;8.48;1.70;;;8.80;70.00;;;;;;4995661;28;20029;-73
2022/03/22 10:31:00;;;;;;;7.00;1.50;;;8.90;69.80;;;;;;4995638;28;20026;-74
2022/03/22 10:33:26;;;;;;;10.02;1.38;;;8.90;68.30;;;;;;4995988;28;20058;-73
2022/03/22 10:35:52;;;;;;;17.42;1.90;;;8.90;68.70;;;;;;4995504;28;20506;-73
2022/03/22 10:38:19;;;;;;;5.00;1.40;;;8.90;68.40;;;;;;4994030;28;20078;-73
2022/03/22 10:40:46;;;;;;;10.13;2.85;;;9.00;67.90;;;;;;4995803;28;20022;-74
2022/03/22 10:43:18;;;;;;;7.53;1.60;;;9.00;67.40;;;;;;4990850;28;20023;-78
2022/03/22 10:45:52;;;;;;;24.83;2.95;;;9.10;66.80;;;;;;4975999;28;20023;-71
2022/03/22 10:48:27;;;;;;;15.70;1.58;;;9.10;65.80;;;;;;4976239;28;20019;-68
2022/03/22 10:50:54;;;;;;;10.60;1.27;;;9.10;64.50;;;;;;4976411;28;20027;-71
2022/03/22 10:53:22;;;;;;;11.80;1.48;;;9.20;63.90;;;;;;4976002;28;20410;-73
2022/03/22 10:55:48;;;;;;;23.25;1.85;;;9.20;64.00;;;;;;4975905;28;20042;-71
2022/03/22 10:58:18;;;;;;;14.60;1.73;;;9.30;63.40;;;;;;4974931;28;20359;-69
2022/03/22 11:00:46;;;;;;;28.25;2.15;;;9.30;63.40;;;;;;4972789;28;20035;-70
2022/03/22 11:03:13;;;;;;;12.98;1.92;;;9.30;62.70;;;;;;4973990;28;20483;-70
2022/03/22 11:05:46;;;;;;;23.85;2.00;;;9.30;62.30;;;;;;4975768;28;20386;-70
2022/03/22 11:08:12;;;;;;;7.85;1.77;;;9.40;62.40;;;;;;4974605;28;20030;-70
2022/03/22 11:10:38;;;;;;;14.55;1.67;;;9.40;62.20;;;;;;4975889;28;20033;-70
2022/03/22 11:13:03;;;;;;;39.17;1.98;;;9.40;62.00;;;;;;4975638;28;20031;-70
2022/03/22 11:15:39;;;;;;;8.18;1.25;;;9.40;62.10;;;;;;4975301;28;20027;-70
2022/03/22 11:18:07;;;;;;;13.43;1.70;;;9.50;61.90;;;;;;4975511;28;20023;-70
2022/03/22 11:20:33;;;;;;;62.83;3.65;;;9.50;62.00;;;;;;4975429;28;20026;-69
2022/03/22 11:23:00;;;;;;;14.65;2.25;;;9.50;62.20;;;;;;4975622;28;20358;-69
2022/03/22 11:25:34;;;;;;;5.03;1.58;;;9.60;62.10;;;;;;4975353;28;20121;-69
2022/03/22 11:28:12;;;;;;;48.15;4.20;;;9.60;61.50;;;;;;4975656;28;20026;-70
2022/03/22 11:30:40;;;;;;;16.60;1.42;;;9.60;61.50;;;;;;4975433;28;20178;-70
2022/03/22 11:35:54;;;;;;;4.38;1.63;;;9.70;61.70;;;;;;4975621;28;20045;-69
2022/03/22 11:38:53;;;;;;;20.75;2.22;;;9.70;61.50;;;;;;4974678;28;20054;-69
2022/03/22 11:44:38;;;;;;;21.52;2.20;;;9.70;61.30;;;;;;4975004;28;20078;-70
2022/03/22 11:47:14;;;;;;;14.05;1.50;;;9.70;60.70;;;;;;4975052;28;20082;-69
2022/03/22 11:50:00;;;;;;;10.02;1.50;;;9.80;61.20;;;;;;4975168;28;20023;-70
2022/03/22 11:52:40;;;;;;;9.32;1.40;;;9.80;60.40;;;;;;4974695;28;20478;-70
2022/03/22 11:55:12;;;;;;;13.32;1.75;;;9.80;60.50;;;;;;4974765;28;20390;-70
2022/03/22 11:57:44;;;;;;;12.52;1.65;;;9.80;60.40;;;;;;4974902;28;20030;-70
2022/03/22 12:00:11;;;;;;;11.65;1.50;;;9.80;60.50;;;;;;4974746;28;20039;-70
2022/03/22 12:02:40;;;;;;;19.98;1.83;;;9.80;60.80;;;;;;4974733;28;20027;-70
2022/03/22 12:05:07;;;;;;;7.00;1.42;;;9.90;60.50;;;;;;4973656;28;20037;-70
2022/03/22 12:07:36;;;;;;;9.65;1.25;;;9.90;60.40;;;;;;4974776;28;20537;-70
2022/03/22 12:10:04;;;;;;;35.78;2.67;;;9.90;60.30;;;;;;4974896;28;20439;-70
2022/03/22 12:12:32;;;;;;;11.88;1.02;;;9.90;60.40;;;;;;4974564;28;20030;-70
2022/03/22 12:15:03;;;;;;;6.60;1.08;;;9.90;60.30;;;;;;4973474;28;20110;-75
2022/03/22 12:17:29;;;;;;;6.78;1.65;;;9.90;60.50;;;;;;4974756;28;20074;-71
2022/03/22 12:20:02;;;;;;;19.48;1.73;;;9.90;60.40;;;;;;4974601;28;20037;-72
2022/03/22 12:22:29;;;;;;;16.15;1.20;;;9.90;60.20;;;;;;4974586;28;20030;-72
2022/03/22 12:25:00;;;;;;;2.53;0.90;;;9.90;60.40;;;;;;4971249;28;20422;-72
2022/03/22 12:27:26;;;;;;;6.05;0.88;;;9.90;60.30;;;;;;4978298;28;20029;-69
2022/03/22 12:29:54;;;;;;;7.22;1.20;;;9.90;60.00;;;;;;4980739;28;20533;-69
2022/03/22 12:32:21;;;;;;;6.45;0.93;;;10.00;61.10;;;;;;4972505;28;20360;-69
2022/03/22 12:34:48;;;;;;;5.47;1.20;;;10.00;60.00;;;;;;4973842;28;20385;-72
2022/03/22 12:37:17;;;;;;;9.48;1.60;;;9.90;59.40;;;;;;4973222;28;20531;-72
2022/03/22 12:39:45;;;;;;;12.32;1.20;;;9.90;59.60;;;;;;4973366;28;20055;-72
2022/03/22 12:42:14;;;;;;;26.52;2.75;;;9.90;59.60;;;;;;4974105;28;20023;-72
2022/03/22 12:44:40;;;;;;;10.13;1.23;;;9.90;59.90;;;;;;4972716;28;20019;-72
2022/03/22 12:47:07;;;;;;;2.78;0.95;;;9.90;59.80;;;;;;4974240;28;20031;-72
2022/03/22 12:49:37;;;;;;;41.35;3.90;;;9.90;60.00;;;;;;4973902;28;20023;-71
2022/03/22 12:52:03;;;;;;;10.57;1.35;;;10.00;59.70;;;;;;4973833;28;20394;-73
2022/03/22 12:54:33;;;;;;;9.55;1.73;;;10.00;59.60;;;;;;4973451;28;20026;-72
2022/03/22 12:57:01;;;;;;;;;;;10.00;59.50;;;;;;4973825;28;20034;-73
2022/03/22 12:59:28;;;;;;;11.48;1.50;;;9.90;58.90;;;;;;4973304;28;19914;-71
2022/03/22 13:01:58;;;;;;;7.65;1.10;;;10.10;62.20;;;;;;4973312;28;20023;-71
2022/03/22 13:04:29;;;;;;;21.15;2.35;;;10.10;60.30;;;;;;4973587;28;20034;-71
2022/03/22 13:07:00;;;;;;;26.23;2.03;;;10.10;59.20;;;;;;4973229;28;20030;-71
2022/03/22 13:12:15;;;;;;;3.35;1.10;;;10.10;63.50;;;;;;4974022;28;20041;-71
2022/03/22 13:17:49;;;;;;;4.93;1.52;;;10.10;58.60;;;;;;4973874;28;20081;-72
2022/03/22 13:20:21;;;;;;;8.87;1.10;;;10.00;58.20;;;;;;4973156;28;20046;-71
2022/03/22 13:23:00;;;;;;;10.80;1.58;;;10.00;58.20;;;;;;4973851;28;20023;-71
2022/03/22 13:25:30;;;;;;;2.95;1.10;;;9.90;58.20;;;;;;4972947;28;20167;-71
2022/03/22 13:28:06;;;;;;;6.03;1.45;;;9.90;57.90;;;;;;4973489;28;20130;-71
2022/03/22 13:30:33;;;;;;;7.28;3.05;;;9.90;57.40;;;;;;4973235;28;20057;-72
2022/03/22 13:33:23;;;;;;;55.95;4.00;;;9.90;57.20;;;;;;4973567;28;20042;-71
2022/03/22 13:36:00;;;;;;;8.23;1.27;;;9.80;57.10;;;;;;4973581;28;20560;-71
2022/03/22 13:38:28;;;;;;;19.38;1.67;;;9.90;57.40;;;;;;4971585;28;20634;-71
2022/03/22 13:41:03;;;;;;;13.45;1.73;;;9.90;57.50;;;;;;4973264;28;20023;-71
2022/03/22 13:43:30;;;;;;;32.70;2.15;;;9.90;57.50;;;;;;4973429;28;20037;-72
2022/03/22 13:45:58;;;;;;;20.70;1.45;;;9.90;57.60;;;;;;4973243;28;20027;-71
2022/03/22 13:48:25;;;;;;;9.98;1.10;;;9.90;57.40;;;;;;4973073;28;20046;-72
2022/03/22 13:50:52;;;;;;;5.65;1.00;;;9.90;57.40;;;;;;4973491;28;20022;-72
2022/03/22 13:53:21;;;;;;;11.25;1.20;;;9.90;57.30;;;;;;4973055;28;20406;-71
2022/03/22 13:55:52;;;;;;;6.88;1.08;;;9.90;56.70;;;;;;4973344;28;20031;-71
2022/03/22 13:58:23;;;;;;;9.85;1.20;;;9.80;56.80;;;;;;4972970;28;20038;-71
2022/03/22 14:00:53;;;;;;;25.77;2.28;;;9.80;56.90;;;;;;4973010;28;20031;-72
2022/03/22 14:03:20;;;;;;;8.63;1.38;;;9.80;57.00;;;;;;4973085;28;20401;-72
2022/03/22 14:05:46;;;;;;;6.93;1.42;;;9.90;56.30;;;;;;4973239;28;20038;-72
2022/03/22 14:08:13;;;;;;;6.47;1.48;;;9.90;56.90;;;;;;4972942;28;20023;-71
2022/03/22 14:10:43;;;;;;;5.53;1.20;;;9.80;56.50;;;;;;4972765;28;20405;-71
2022/03/22 14:13:09;;;;;;;5.63;0.80;;;9.80;56.90;;;;;;4973236;28;20138;-71
2022/03/22 14:15:35;;;;;;;3.42;1.00;;;9.80;57.00;;;;;;4973060;28;20143;-71
2022/03/22 14:18:01;;;;;;;2.92;0.88;;;9.80;56.50;;;;;;4973217;28;20019;-71
2022/03/22 14:20:28;;;;;;;26.80;1.38;;;9.80;56.20;;;;;;4972915;28;20035;-71
2022/03/22 14:22:55;;;;;;;12.40;1.17;;;9.80;56.70;;;;;;4972757;28;20082;-71
2022/03/22 14:25:22;;;;;;;7.38;1.08;;;9.80;56.70;;;;;;4972728;28;20031;-71
2022/03/22 14:27:50;;;;;;;6.70;1.17;;;9.80;56.40;;;;;;4973120;28;20031;-71
2022/03/22 14:30:19;;;;;;;6.07;1.15;;;9.80;56.00;;;;;;4973033;28;20129;-70
2022/03/22 14:32:56;;;;;;;13.35;1.50;;;10.00;60.50;;;;;;4972664;28;20027;-71
2022/03/22 14:38:09;;;;;;;1.83;0.80;;;10.00;56.20;;;;;;4971538;28;20394;-70
2022/03/22 14:40:37;;;;;;;4.53;0.88;;;9.90;56.20;;;;;;4976334;28;20066;-70
2022/03/22 14:43:05;;;;;;;3.65;1.13;;;9.80;56.20;;;;;;4976529;28;20019;-68
2022/03/22 14:45:31;;;;;;;4.60;1.13;;;9.80;55.90;;;;;;4976225;28;20019;-69
2022/03/22 14:47:57;;;;;;;20.02;1.27;;;9.80;56.30;;;;;;4976370;28;20506;-69